createdAt,value
2018-09-03T00:00:38.051Z,11.95
2018-09-03T00:03:25.909Z,12.13
2018-09-03T00:06:14.042Z,12.15
2018-09-03T00:09:01.272Z,13.50
2018-09-03T00:12:03.817Z,12.30
2018-09-03T00:15:06.588Z,11.32
2018-09-03T00:17:56.164Z,12.85
2018-09-03T00:20:43.736Z,11.77
2018-09-03T00:23:32.327Z,11.18
2018-09-03T00:26:21.894Z,10.45
2018-09-03T00:32:31.117Z,13.87
2018-09-03T00:35:22.770Z,11.52
2018-09-03T00:38:29.629Z,12.85
2018-09-03T00:41:26.856Z,11.20
2018-09-03T00:53:34.155Z,11.38
2018-09-03T01:05:44.722Z,10.60
2018-09-03T01:08:40.379Z,10.40
2018-09-03T01:11:43.798Z,11.90
2018-09-03T01:14:39.744Z,12.20
2018-09-03T01:17:28.369Z,11.90
2018-09-03T01:20:16.100Z,10.45
2018-09-03T01:26:15.663Z,10.35
2018-09-03T01:29:04.439Z,12.18
2018-09-03T01:31:57.051Z,11.52
2018-09-03T01:37:50.741Z,11.75
2018-09-03T01:40:38.595Z,13.15
2018-09-03T01:46:51.046Z,12.25
2018-09-03T01:49:38.711Z,12.10
2018-09-03T01:52:27.562Z,12.65
2018-09-03T01:55:16.792Z,14.90
2018-09-03T01:58:19.829Z,13.38
2018-09-03T02:01:15.517Z,12.45
2018-09-03T02:04:03.385Z,14.05
2018-09-03T02:13:04.194Z,12.13
2018-09-03T02:25:12.238Z,13.73
2018-09-03T02:34:13.768Z,13.07
2018-09-03T02:37:02.364Z,12.43
2018-09-03T02:42:56.204Z,14.05
2018-09-03T02:45:51.372Z,13.00
2018-09-03T02:51:55.618Z,13.80
2018-09-03T02:54:44.032Z,13.13
2018-09-03T03:00:38.691Z,15.40
2018-09-03T03:03:33.916Z,15.60
2018-09-03T03:06:21.621Z,13.45
2018-09-03T03:09:09.121Z,13.98
2018-09-03T03:11:57.869Z,13.38
2018-09-03T03:17:52.438Z,13.32
2018-09-03T03:20:41.382Z,15.52
2018-09-03T03:23:36.192Z,13.95
2018-09-03T03:26:23.617Z,14.80
2018-09-03T03:32:18.031Z,15.83
2018-09-03T03:35:12.949Z,13.93
2018-09-03T03:38:11.801Z,13.90
2018-09-03T03:41:04.588Z,12.82
2018-09-03T03:44:07.641Z,14.35
2018-09-03T03:47:17.498Z,15.40
2018-09-03T03:50:05.136Z,13.43
2018-09-03T03:52:53.475Z,13.75
2018-09-03T03:55:40.925Z,15.55
2018-09-03T04:04:44.037Z,19.50
2018-09-03T04:07:31.345Z,18.65
2018-09-03T04:10:19.019Z,17.80
2018-09-03T04:22:25.904Z,19.05
2018-09-03T04:25:15.295Z,17.90
2018-09-03T04:28:02.831Z,17.83
2018-09-03T04:30:50.328Z,19.20
2018-09-03T04:33:37.933Z,18.70
2018-09-03T04:52:08.889Z,17.73
2018-09-03T04:54:58.774Z,18.17
2018-09-03T04:57:46.622Z,18.43
2018-09-03T05:03:55.374Z,16.95
2018-09-03T05:06:43.816Z,16.50
2018-09-03T05:09:32.524Z,16.42
2018-09-03T05:12:20.156Z,15.25
2018-09-03T05:15:07.676Z,14.10
2018-09-03T05:17:55.346Z,14.65
2018-09-03T05:20:42.702Z,13.60
2018-09-03T05:23:31.174Z,15.15
2018-09-03T05:26:18.602Z,14.43
2018-09-03T05:29:06.271Z,14.23
2018-09-03T05:31:54.497Z,14.13
2018-09-03T05:34:43.624Z,15.93
2018-09-03T05:37:46.632Z,15.40
2018-09-03T05:40:33.991Z,15.50
2018-09-03T05:49:35.860Z,15.88
2018-09-03T05:52:24.423Z,17.90
2018-09-03T05:55:13.586Z,16.67
2018-09-03T05:58:00.621Z,17.65
2018-09-03T06:00:50.307Z,17.58
2018-09-03T06:03:38.755Z,18.05
2018-09-03T06:06:27.962Z,18.30
2018-09-03T06:09:18.320Z,18.77
2018-09-03T06:12:06.370Z,18.75
2018-09-03T06:14:53.801Z,18.08
2018-09-03T06:17:48.629Z,20.57
2018-09-03T06:20:37.039Z,19.67
2018-09-03T06:23:31.735Z,19.52
2018-09-03T06:26:27.197Z,18.05
2018-09-03T06:29:22.158Z,21.20
2018-09-03T06:32:25.427Z,22.42
2018-09-03T06:35:12.875Z,20.20
2018-09-03T06:41:07.854Z,20.17
2018-09-03T06:47:03.471Z,21.33
2018-09-03T06:49:51.416Z,20.80
2018-09-03T06:52:40.115Z,20.75
2018-09-03T06:55:27.389Z,21.55
2018-09-03T06:58:15.068Z,21.45
2018-09-03T07:01:06.071Z,21.55
2018-09-03T07:03:55.707Z,21.33
2018-09-03T07:12:59.510Z,22.80
2018-09-03T07:16:02.273Z,21.80
2018-09-03T07:21:57.180Z,21.90
2018-09-03T07:24:52.348Z,23.27
2018-09-03T07:27:40.723Z,21.42
2018-09-03T07:33:34.861Z,21.35
2018-09-03T07:36:23.290Z,21.90
2018-09-03T07:39:10.512Z,22.70
2018-09-03T07:41:57.775Z,23.33
2018-09-03T07:44:45.802Z,22.42
2018-09-03T07:47:33.473Z,23.05
2018-09-03T07:50:21.224Z,23.95
2018-09-03T07:53:16.192Z,24.08
2018-09-03T07:59:09.738Z,22.85
2018-09-03T08:01:58.327Z,24.42
2018-09-03T08:04:45.484Z,23.83
2018-09-03T08:07:41.594Z,25.33
2018-09-03T08:13:35.875Z,24.27
2018-09-03T08:16:30.998Z,24.60
2018-09-03T08:19:19.037Z,25.83
2018-09-03T08:22:05.945Z,25.35
2018-09-03T08:24:53.594Z,26.15
2018-09-03T08:27:41.698Z,24.30
2018-09-03T08:30:30.020Z,25.02
2018-09-03T08:36:27.163Z,25.42
2018-09-03T08:39:16.917Z,25.12
2018-09-03T08:42:04.110Z,25.17
2018-09-03T08:47:57.974Z,25.27
2018-09-03T08:50:45.440Z,23.95
2018-09-03T08:53:33.980Z,26.10
2018-09-03T08:56:22.548Z,23.87
2018-09-03T09:02:16.726Z,22.73
2018-09-03T09:08:11.191Z,24.02
2018-09-03T09:11:00.242Z,23.75
2018-09-03T09:13:47.460Z,23.90
2018-09-03T09:16:34.756Z,24.23
2018-09-03T09:19:22.333Z,23.80
2018-09-03T09:22:11.884Z,23.33
2018-09-03T09:28:09.990Z,21.73
2018-09-03T09:30:58.414Z,23.80
2018-09-03T09:33:49.221Z,23.30
2018-09-03T09:42:50.773Z,22.60
2018-09-03T09:45:38.113Z,23.02
2018-09-03T09:48:25.535Z,23.10
2018-09-03T09:51:13.285Z,23.05
2018-09-03T09:54:01.583Z,23.70
2018-09-03T09:56:48.868Z,23.35
2018-09-03T09:59:36.764Z,21.65
2018-09-03T10:02:24.207Z,23.02
2018-09-03T10:05:19.713Z,21.70
2018-09-03T10:08:08.252Z,22.05
2018-09-03T10:10:55.625Z,24.27
2018-09-03T10:13:43.353Z,24.08
2018-09-03T10:16:30.854Z,23.27
2018-09-03T10:19:26.149Z,22.50
2018-09-03T10:22:13.328Z,24.10
2018-09-03T10:25:08.399Z,23.25
2018-09-03T10:27:55.929Z,22.90
2018-09-03T10:30:44.403Z,23.42
2018-09-03T10:33:32.642Z,23.35
2018-09-03T10:36:21.322Z,23.25
2018-09-03T10:39:09.765Z,24.17
2018-09-03T10:42:05.182Z,24.00
2018-09-03T10:45:08.180Z,21.20
2018-09-03T10:48:03.714Z,21.70
2018-09-03T10:50:51.579Z,21.65
2018-09-03T10:53:38.700Z,21.60
2018-09-03T10:56:33.351Z,20.60
2018-09-03T10:59:20.719Z,21.83
2018-09-03T11:02:23.404Z,20.40
2018-09-03T11:05:11.089Z,22.90
2018-09-03T11:08:06.784Z,19.83
2018-09-03T11:10:54.494Z,18.02
2018-09-03T11:13:45.902Z,20.83
2018-09-03T11:16:34.136Z,21.08
2018-09-03T11:19:29.512Z,18.48
2018-09-03T11:22:17.395Z,20.70
2018-09-03T11:25:05.688Z,18.15
2018-09-03T11:27:53.245Z,19.58
2018-09-03T11:30:41.770Z,21.00
2018-09-03T11:33:33.208Z,20.48
2018-09-03T11:36:21.829Z,20.12
2018-09-03T11:39:16.795Z,21.00
2018-09-03T11:42:04.352Z,19.42
2018-09-03T11:44:51.824Z,19.00
2018-09-03T11:47:41.277Z,19.53
2018-09-03T11:50:29.294Z,20.20
2018-09-03T11:53:31.717Z,18.98
2018-09-03T11:56:20.199Z,17.98
2018-09-03T11:59:07.653Z,15.23
2018-09-03T12:02:02.385Z,14.60
2018-09-03T12:04:49.816Z,14.27
2018-09-03T12:07:38.202Z,14.05
2018-09-03T12:10:25.675Z,13.55
2018-09-03T12:13:13.413Z,15.00
2018-09-03T12:19:08.014Z,14.32
2018-09-03T12:21:57.758Z,14.52
2018-09-03T12:27:54.158Z,14.75
2018-09-03T12:30:43.547Z,15.20
2018-09-03T12:33:32.959Z,15.23
2018-09-03T12:42:32.991Z,14.82
2018-09-03T12:45:33.832Z,15.98
2018-09-03T12:48:21.780Z,14.50
2018-09-03T12:51:10.146Z,15.38
2018-09-03T12:53:58.918Z,14.80
2018-09-03T12:56:46.457Z,16.05
2018-09-03T12:59:34.861Z,14.98
2018-09-03T13:02:22.292Z,15.63
2018-09-03T13:05:09.859Z,15.35
2018-09-03T13:07:57.493Z,15.85
2018-09-03T13:10:44.664Z,16.17
2018-09-03T13:13:39.060Z,16.35
2018-09-03T13:19:35.410Z,17.50
2018-09-03T13:22:23.255Z,16.70
2018-09-03T13:25:11.555Z,17.12
2018-09-03T13:27:59.908Z,17.52
2018-09-03T13:30:48.059Z,17.83
2018-09-03T13:33:36.213Z,17.98
2018-09-03T13:36:24.913Z,17.85
2018-09-03T13:39:12.320Z,19.77
2018-09-03T13:42:00.636Z,19.23
2018-09-03T13:44:48.043Z,18.65
2018-09-03T13:47:35.458Z,17.90
2018-09-03T13:50:26.835Z,18.37
2018-09-03T13:53:15.196Z,18.10
2018-09-03T13:56:10.829Z,19.70
2018-09-03T13:58:58.220Z,19.85
2018-09-03T14:04:52.252Z,19.02
2018-09-03T14:07:40.589Z,19.10
2018-09-03T14:10:32.455Z,18.77
2018-09-03T14:13:19.866Z,18.27
2018-09-03T14:16:08.882Z,19.45
2018-09-03T14:18:56.625Z,19.00
2018-09-03T14:21:44.393Z,18.87
2018-09-03T14:27:37.884Z,19.27
2018-09-03T14:30:44.569Z,19.25
2018-09-03T14:33:31.781Z,19.52
2018-09-03T14:36:20.265Z,19.35
2018-09-03T14:42:14.325Z,19.75
2018-09-03T14:48:23.823Z,19.48
2018-09-03T14:51:30.452Z,19.42
2018-09-03T14:54:33.120Z,17.92
2018-09-03T14:57:21.076Z,19.48
2018-09-03T15:00:17.314Z,19.40
2018-09-03T15:06:13.120Z,18.90
2018-09-03T15:12:06.860Z,17.40
2018-09-03T15:15:09.884Z,18.12
2018-09-03T15:30:24.881Z,17.90
2018-09-03T15:36:18.570Z,18.12
2018-09-03T15:39:06.073Z,17.98
2018-09-03T15:41:53.666Z,18.45
2018-09-03T15:47:55.024Z,17.60
2018-09-03T15:50:42.852Z,16.67
2018-09-03T15:53:37.683Z,18.12
2018-09-03T15:56:29.341Z,17.20
2018-09-03T15:59:17.892Z,18.02
2018-09-03T16:08:18.125Z,17.40
2018-09-03T16:11:05.275Z,18.00
2018-09-03T16:14:03.103Z,17.73
2018-09-03T16:20:05.438Z,16.35
2018-09-03T16:22:53.994Z,18.08
2018-09-03T16:25:42.848Z,16.95
2018-09-03T16:28:30.514Z,17.10
2018-09-03T16:31:18.951Z,17.20
2018-09-03T16:37:20.617Z,16.90
2018-09-03T16:40:08.290Z,16.92
2018-09-03T16:42:56.905Z,16.20
2018-09-03T16:45:45.019Z,17.83
2018-09-03T16:48:40.318Z,16.95
2018-09-03T16:51:28.375Z,16.85
2018-09-03T16:54:15.737Z,17.67
2018-09-03T16:57:07.128Z,18.20
2018-09-03T16:59:54.789Z,17.87
2018-09-03T17:02:43.159Z,17.62
2018-09-03T17:05:31.538Z,18.77
2018-09-03T17:08:27.083Z,18.37
2018-09-03T17:23:54.994Z,19.73
2018-09-03T17:26:51.957Z,21.80
2018-09-03T17:42:12.828Z,20.55
2018-09-03T17:45:08.083Z,21.95
2018-09-03T17:48:12.030Z,21.05
2018-09-03T17:54:07.070Z,21.12
2018-09-03T18:00:04.112Z,20.92
2018-09-03T18:02:51.515Z,21.33
2018-09-03T18:05:40.521Z,23.15
2018-09-03T18:08:28.675Z,21.83
2018-09-03T18:11:16.491Z,23.08
2018-09-03T18:14:05.286Z,22.15
2018-09-03T18:16:54.830Z,23.20
2018-09-03T18:19:44.106Z,22.52
2018-09-03T18:22:33.391Z,22.40
2018-09-03T18:25:22.318Z,23.02
2018-09-03T18:28:10.668Z,21.87
2018-09-03T18:34:06.155Z,23.10
2018-09-03T18:36:53.303Z,26.27
2018-09-03T18:39:40.516Z,25.15
2018-09-03T18:42:30.314Z,24.60
2018-09-03T18:45:18.615Z,25.45
2018-09-03T18:48:06.378Z,23.98
2018-09-03T18:54:00.489Z,24.45
2018-09-03T18:56:50.844Z,24.55
2018-09-03T18:59:40.383Z,27.07
2018-09-03T19:02:28.674Z,27.00
2018-09-03T19:05:15.518Z,25.58
2018-09-03T19:08:04.444Z,27.35
2018-09-03T19:11:07.473Z,25.75
2018-09-03T19:13:55.985Z,25.37
2018-09-03T19:19:49.879Z,27.30
2018-09-03T19:22:38.417Z,25.67
2018-09-03T19:25:27.267Z,24.75
2018-09-03T19:28:14.860Z,24.10
2018-09-03T19:31:03.514Z,24.23
2018-09-03T19:33:53.828Z,24.03
2018-09-03T19:36:41.598Z,25.23
2018-09-03T19:39:29.983Z,23.40
2018-09-03T19:42:22.575Z,25.48
2018-09-03T19:45:22.222Z,23.52
2018-09-03T19:48:09.517Z,24.67
2018-09-03T19:51:08.784Z,24.52
2018-09-03T19:54:08.341Z,24.63
2018-09-03T19:56:56.043Z,25.45
2018-09-03T20:02:50.146Z,25.85
2018-09-03T20:05:38.223Z,24.83
2018-09-03T20:08:25.877Z,24.85
2018-09-03T20:11:14.840Z,25.65
2018-09-03T20:14:02.621Z,25.85
2018-09-03T20:16:51.146Z,27.83
2018-09-03T20:19:39.489Z,26.87
2018-09-03T20:22:27.500Z,28.53
2018-09-03T20:25:15.192Z,28.60
2018-09-03T20:28:02.705Z,26.87
2018-09-03T20:30:50.479Z,27.27
2018-09-03T20:33:38.490Z,29.92
2018-09-03T20:36:26.028Z,28.95
2018-09-03T20:39:14.603Z,28.12
2018-09-03T20:42:03.812Z,30.17
2018-09-03T20:44:54.768Z,28.15
2018-09-03T20:47:42.141Z,28.25
2018-09-03T20:50:33.039Z,27.27
2018-09-03T20:53:20.152Z,28.05
2018-09-03T20:56:08.369Z,28.15
2018-09-03T20:58:57.543Z,28.83
2018-09-03T21:01:50.849Z,29.02
2018-09-03T21:04:39.850Z,32.65
2018-09-03T21:07:34.327Z,30.02
2018-09-03T21:10:28.917Z,30.37
2018-09-03T21:13:17.392Z,29.80
2018-09-03T21:19:28.847Z,28.73
2018-09-03T21:25:28.754Z,30.17
2018-09-03T21:28:17.558Z,30.45
2018-09-03T21:31:13.121Z,30.08
2018-09-03T21:34:03.560Z,28.83
2018-09-03T21:36:51.138Z,30.37
2018-09-03T21:39:38.758Z,30.80
2018-09-03T21:45:38.483Z,29.55
2018-09-03T21:48:34.896Z,28.73
2018-09-03T21:51:34.132Z,29.65
2018-09-03T21:57:36.575Z,30.50
2018-09-03T22:00:25.977Z,29.20
2018-09-03T22:03:15.181Z,28.62
2018-09-03T22:06:03.216Z,30.83
2018-09-03T22:08:51.356Z,27.73
2018-09-03T22:11:58.468Z,28.73
2018-09-03T22:14:49.443Z,27.45
2018-09-03T22:17:46.233Z,29.42
2018-09-03T22:20:33.674Z,29.00
2018-09-03T22:26:38.359Z,30.80
2018-09-03T22:29:26.068Z,28.77
2018-09-03T22:32:14.118Z,30.30
2018-09-03T22:35:06.807Z,29.85
2018-09-03T22:41:01.516Z,30.30
2018-09-03T22:43:49.184Z,29.48
2018-09-03T22:46:36.624Z,29.48
2018-09-03T22:49:25.652Z,31.02
2018-09-03T22:55:19.469Z,29.70
2018-09-03T22:58:09.687Z,28.58
2018-09-03T23:00:58.236Z,27.40
2018-09-03T23:03:47.264Z,28.10
2018-09-03T23:06:35.980Z,29.67
2018-09-03T23:09:24.045Z,31.15
2018-09-03T23:12:18.855Z,28.70
2018-09-03T23:15:10.019Z,30.77
2018-09-03T23:18:03.682Z,28.95
2018-09-03T23:24:08.887Z,30.58
2018-09-03T23:26:58.750Z,29.23
2018-09-03T23:29:54.000Z,30.42
2018-09-03T23:32:49.090Z,29.23
2018-09-03T23:35:36.318Z,28.17
2018-09-03T23:38:24.993Z,30.45
2018-09-03T23:41:13.414Z,30.55
2018-09-03T23:44:00.880Z,30.48
2018-09-03T23:46:48.446Z,34.55
2018-09-03T23:49:37.627Z,33.25
2018-09-03T23:52:25.281Z,31.25
2018-09-03T23:55:14.607Z,33.33
2018-09-03T23:58:04.514Z,31.60
